Time;durP1;ratioP1;P1;durP2;ratioP2;P2;SDS_P1;SDS_P2;PMS_P1;PMS_P2;Temp;Humidity;BMP_temperature;BMP_pressure;BME280_temperature;BME280_humidity;BME280_pressure;Samples;Min_cycle;Max_cycle;Signal;HPM_P1;HPM_P2
2023/02/03 00:01:59;;;;;;;81.20;75.20;;;6.30;96.60;;;;;;5018483;28;20219;-89
2023/02/03 00:04:24;;;;;;;81.90;75.90;;;6.30;96.60;;;;;;5021219;28;20178;-89
2023/02/03 00:06:50;;;;;;;84.70;78.00;;;6.40;96.60;;;;;;5021532;28;20540;-88
2023/02/03 00:09:15;;;;;;;81.60;75.60;;;6.40;96.60;;;;;;5020589;28;20639;-87
2023/02/03 00:11:41;;;;;;;80.03;74.23;;;6.50;96.70;;;;;;5019408;28;20209;-87
2023/02/03 00:14:07;;;;;;;82.57;76.00;;;6.70;96.70;;;;;;5020549;28;20197;-89
2023/02/03 00:16:33;;;;;;;84.43;78.17;;;6.70;96.70;;;;;;5019207;28;20181;-88
2023/02/03 00:18:59;;;;;;;83.13;76.63;;;6.80;96.70;;;;;;5018692;28;20173;-88
2023/02/03 00:21:24;;;;;;;81.23;75.13;;;6.90;96.70;;;;;;5018766;28;20193;-88
2023/02/03 00:23:50;;;;;;;79.93;74.27;;;7.00;96.70;;;;;;5017244;28;20181;-88
2023/02/03 00:26:16;;;;;;;82.30;76.60;;;7.00;96.60;;;;;;5017212;28;20186;-89
2023/02/03 00:28:42;;;;;;;78.17;72.50;;;7.00;96.60;;;;;;5017481;28;20184;-89
2023/02/03 00:31:16;;;;;;;85.00;79.30;;;7.00;96.50;;;;;;5017456;28;20667;-89
2023/02/03 00:33:41;;;;;;;90.20;83.83;;;7.10;96.50;;;;;;5019247;28;20178;-88
2023/02/03 00:36:07;;;;;;;89.03;83.17;;;7.10;96.40;;;;;;5020558;28;20177;-88
2023/02/03 00:38:33;;;;;;;99.43;91.50;;;7.20;96.30;;;;;;5022706;28;20209;-87
2023/02/03 00:40:58;;;;;;;98.13;90.30;;;7.20;96.10;;;;;;5023303;28;20204;-87
2023/02/03 00:43:24;;;;;;;95.07;88.20;;;7.20;95.90;;;;;;5021928;28;20188;-87
2023/02/03 00:45:49;;;;;;;88.10;82.17;;;7.20;95.80;;;;;;5021763;28;20184;-88
2023/02/03 00:48:15;;;;;;;98.27;90.57;;;7.20;95.60;;;;;;5022066;28;20178;-89
2023/02/03 00:50:40;;;;;;;89.47;82.90;;;7.30;95.50;;;;;;5021745;28;20209;-89
2023/02/03 00:53:06;;;;;;;93.03;85.63;;;7.30;95.30;;;;;;5024293;28;20236;-87
2023/02/03 00:55:32;;;;;;;86.30;80.70;;;7.30;95.20;;;;;;5024665;28;20576;-88
2023/02/03 00:57:57;;;;;;;84.33;77.90;;;7.30;95.10;;;;;;5023895;28;20182;-88
2023/02/03 01:00:23;;;;;;;85.33;78.70;;;7.30;94.80;;;;;;5022627;28;20202;-87
2023/02/03 01:02:48;;;;;;;82.67;76.53;;;7.40;94.70;;;;;;5022184;28;20185;-88
2023/02/03 01:05:14;;;;;;;81.07;74.63;;;7.40;94.50;;;;;;5024253;28;20182;-87
2023/02/03 01:07:39;;;;;;;80.60;74.20;;;7.50;94.40;;;;;;5023736;28;20185;-88
2023/02/03 01:10:05;;;;;;;72.17;66.90;;;7.50;94.30;;;;;;5024926;28;20205;-88
2023/02/03 01:12:32;;;;;;;72.40;66.33;;;7.50;94.00;;;;;;5022603;28;20205;-87
2023/02/03 01:14:57;;;;;;;71.20;65.33;;;7.50;93.90;;;;;;5025387;28;20208;-88
2023/02/03 01:17:23;;;;;;;67.57;62.23;;;7.50;93.80;;;;;;5026289;28;20177;-88
2023/02/03 01:19:50;;;;;;;66.73;61.53;;;7.50;93.60;;;;;;5028654;28;20184;-88
2023/02/03 01:22:15;;;;;;;74.10;67.57;;;7.50;93.60;;;;;;5026599;28;20565;-88
2023/02/03 01:24:41;;;;;;;70.70;65.17;;;7.50;93.60;;;;;;5027473;28;20196;-88
2023/02/03 01:27:07;;;;;;;73.87;67.53;;;7.50;93.60;;;;;;5026320;28;20192;-88
2023/02/03 01:29:32;;;;;;;64.97;60.13;;;7.50;93.70;;;;;;5025815;28;20602;-87
2023/02/03 01:31:58;;;;;;;56.70;52.10;;;7.50;93.60;;;;;;5028555;28;20307;-88
2023/02/03 01:34:23;;;;;;;54.83;51.00;;;7.50;93.30;;;;;;5028168;28;20205;-87
2023/02/03 01:36:49;;;;;;;54.00;50.53;;;7.50;93.20;;;;;;5026591;28;20177;-87
2023/02/03 01:39:14;;;;;;;55.70;51.17;;;7.50;93.20;;;;;;5027976;28;20173;-89
2023/02/03 01:41:40;;;;;;;52.40;48.20;;;7.50;93.10;;;;;;5026863;28;20200;-88
2023/02/03 01:44:31;;;;;;;51.60;47.00;;;7.50;93.00;;;;;;5027308;28;20177;-88
2023/02/03 01:46:57;;;;;;;45.37;41.97;;;7.50;92.90;;;;;;5027052;28;20177;-88
2023/02/03 01:49:28;;;;;;;45.33;41.47;;;7.60;92.70;;;;;;5027128;28;20189;-89
2023/02/03 01:51:54;;;;;;;42.57;39.47;;;7.60;92.50;;;;;;5028621;28;20240;-88
2023/02/03 01:54:36;;;;;;;48.60;43.77;;;7.60;92.50;;;;;;5027252;28;20678;-88
2023/02/03 01:57:06;;;;;;;45.93;42.40;;;7.60;92.70;;;;;;5028664;28;20149;-87
2023/02/03 01:59:34;;;;;;;46.17;42.23;;;7.50;92.60;;;;;;5028543;28;20650;-87
2023/02/03 02:02:01;;;;;;;44.07;40.93;;;7.60;92.50;;;;;;5027056;28;20216;-88
2023/02/03 02:04:35;;;;;;;47.13;42.97;;;7.50;92.60;;;;;;5027675;28;20191;-88
2023/02/03 02:07:02;;;;;;;42.77;39.50;;;7.60;92.50;;;;;;5029140;28;20165;-88
2023/02/03 02:09:28;;;;;;;39.73;36.73;;;7.60;92.40;;;;;;5027321;28;20190;-88
2023/02/03 02:11:53;;;;;;;43.57;40.50;;;7.60;92.30;;;;;;5028485;28;20201;-88
2023/02/03 02:14:19;;;;;;;43.57;40.23;;;7.60;92.40;;;;;;5027545;28;20212;-88
2023/02/03 02:16:57;;;;;;;43.87;41.17;;;7.60;92.50;;;;;;5026460;28;20173;-88
2023/02/03 02:19:37;;;;;;;45.80;42.73;;;7.50;92.60;;;;;;5027596;28;20173;-87
2023/02/03 02:22:26;;;;;;;45.17;41.80;;;7.50;92.70;;;;;;5028041;28;20193;-87
2023/02/03 02:25:10;;;;;;;38.77;36.00;;;7.60;92.50;;;;;;5028073;28;20220;-88
2023/02/03 02:27:57;;;;;;;40.37;37.67;;;7.50;92.50;;;;;;5027664;28;20227;-89
2023/02/03 02:30:44;;;;;;;42.33;39.30;;;7.60;92.40;;;;;;5028415;28;20197;-88
2023/02/03 02:33:45;;;;;;;40.57;37.50;;;7.60;92.40;;;;;;5015904;28;20544;-86
2023/02/03 02:36:17;;;;;;;38.67;35.97;;;7.60;92.20;;;;;;5015983;28;20204;-86
2023/02/03 02:39:18;;;;;;;38.17;35.00;;;7.60;92.10;;;;;;5016199;28;20597;-86
2023/02/03 02:41:51;;;;;;;38.27;34.93;;;7.60;92.10;;;;;;5014286;28;20562;-86
2023/02/03 02:44:32;;;;;;;38.83;35.77;;;7.60;92.10;;;;;;5015789;28;20184;-86
2023/02/03 02:47:00;;;;;;;38.70;35.27;;;7.70;92.00;;;;;;5014427;28;20176;-85
2023/02/03 02:49:36;;;;;;;35.97;32.80;;;7.70;91.80;;;;;;5014558;28;20177;-86
2023/02/03 02:52:04;;;;;;;35.97;32.97;;;7.70;91.60;;;;;;5014323;28;20197;-86
2023/02/03 02:54:32;;;;;;;37.67;33.83;;;7.70;91.60;;;;;;5014113;28;20769;-86
2023/02/03 02:57:02;;;;;;;31.23;28.87;;;7.70;91.40;;;;;;5015602;28;20193;-86
2023/02/03 02:59:27;;;;;;;28.80;25.97;;;7.80;91.10;;;;;;5014115;28;20177;-86
2023/02/03 03:01:53;;;;;;;32.40;29.37;;;7.80;90.70;;;;;;5014191;28;20287;-86
2023/02/03 03:04:24;;;;;;;29.23;26.90;;;7.70;90.80;;;;;;5015565;28;20181;-86
2023/02/03 03:07:03;;;;;;;27.00;24.70;;;7.80;90.90;;;;;;5014057;28;20216;-86
2023/02/03 03:09:43;;;;;;;28.00;25.73;;;7.80;90.50;;;;;;5015592;28;20192;-86
2023/02/03 03:12:18;;;;;;;27.60;25.30;;;7.80;90.50;;;;;;5013826;28;20633;-86
2023/02/03 03:14:48;;;;;;;31.83;28.73;;;7.80;90.60;;;;;;5013871;28;20223;-86
2023/02/03 03:17:26;;;;;;;31.03;28.00;;;7.80;90.80;;;;;;5015546;28;20594;-86
2023/02/03 03:19:55;;;;;;;29.33;26.27;;;7.70;90.80;;;;;;5014968;28;20150;-86
2023/02/03 03:22:25;;;;;;;29.90;27.37;;;7.70;90.90;;;;;;5013589;28;20197;-86
2023/02/03 03:24:57;;;;;;;32.80;30.10;;;7.80;90.80;;;;;;5013773;28;20173;-86
2023/02/03 03:27:27;;;;;;;34.80;31.50;;;7.80;91.00;;;;;;5013816;28;20244;-86
2023/02/03 03:29:59;;;;;;;35.80;32.33;;;7.70;91.20;;;;;;5013705;28;20268;-86
2023/02/03 03:32:26;;;;;;;36.97;33.47;;;7.70;91.50;;;;;;5013656;28;20207;-86
2023/02/03 03:34:53;;;;;;;37.30;33.80;;;7.70;91.60;;;;;;5014831;28;20193;-86
2023/02/03 03:37:26;;;;;;;38.67;34.97;;;7.70;91.60;;;;;;5012712;28;20269;-85
2023/02/03 03:40:00;;;;;;;34.63;31.17;;;7.70;91.80;;;;;;5015009;28;20161;-85
2023/02/03 03:42:34;;;;;;;33.20;29.93;;;7.70;91.70;;;;;;5013582;28;20249;-88
2023/02/03 03:45:07;;;;;;;34.70;31.07;;;7.70;91.60;;;;;;5014542;28;20165;-85
2023/02/03 03:47:58;;;;;;;35.43;31.90;;;7.80;91.40;;;;;;5013345;28;20781;-86
2023/02/03 03:50:33;;;;;;;39.77;34.37;;;7.70;91.60;;;;;;5013684;28;20197;-86
2023/02/03 03:53:01;;;;;;;44.97;41.33;;;7.70;91.90;;;;;;5013179;28;20176;-85
2023/02/03 03:55:29;;;;;;;47.77;44.20;;;7.60;92.20;;;;;;5013383;28;20224;-85
2023/02/03 03:58:03;;;;;;;52.67;48.80;;;7.60;92.70;;;;;;5013349;28;20201;-86
2023/02/03 04:00:33;;;;;;;52.57;48.77;;;7.50;92.90;;;;;;5013078;28;20204;-86
2023/02/03 04:03:12;;;;;;;64.67;60.37;;;7.50;93.30;;;;;;5014712;28;20166;-86
2023/02/03 04:05:39;;;;;;;67.97;63.10;;;7.50;93.60;;;;;;5014237;28;20168;-86
2023/02/03 04:08:05;;;;;;;73.27;67.80;;;7.50;94.00;;;;;;5012647;28;20177;-86
2023/02/03 04:10:33;;;;;;;69.67;65.13;;;7.40;94.00;;;;;;5012913;28;20236;-86
2023/02/03 04:12:58;;;;;;;72.00;67.23;;;7.40;94.20;;;;;;5012826;28;20181;-85
2023/02/03 04:15:24;;;;;;;74.43;69.63;;;7.40;94.30;;;;;;5014580;28;20204;-89
2023/02/03 04:17:50;;;;;;;78.73;72.80;;;7.40;94.40;;;;;;5013144;28;20184;-87
2023/02/03 04:20:15;;;;;;;82.77;77.27;;;7.40;94.40;;;;;;5012994;28;20223;-86
2023/02/03 04:22:41;;;;;;;82.50;77.07;;;7.40;94.40;;;;;;5014146;28;20216;-86
2023/02/03 04:25:07;;;;;;;84.30;78.37;;;7.40;94.50;;;;;;5014174;28;20177;-86
2023/02/03 04:27:33;;;;;;;87.10;80.47;;;7.40;94.50;;;;;;5014154;28;20185;-87
2023/02/03 04:29:59;;;;;;;85.83;79.47;;;7.40;94.50;;;;;;5013979;28;20176;-85
2023/02/03 04:32:25;;;;;;;84.27;77.77;;;7.40;94.50;;;;;;5013934;28;20177;-86
2023/02/03 04:34:50;;;;;;;81.23;75.13;;;7.40;94.50;;;;;;5012455;28;20220;-86
2023/02/03 04:37:16;;;;;;;83.80;77.57;;;7.40;94.50;;;;;;5012593;28;20172;-86
2023/02/03 04:39:41;;;;;;;85.87;79.53;;;7.40;94.50;;;;;;5012393;28;20545;-86
2023/02/03 04:42:07;;;;;;;88.13;82.00;;;7.40;94.50;;;;;;5012406;28;20204;-86
2023/02/03 04:44:32;;;;;;;84.50;78.87;;;7.40;94.50;;;;;;5012423;28;20177;-86
2023/02/03 04:46:58;;;;;;;82.63;76.53;;;7.30;94.60;;;;;;5012571;28;20178;-86
2023/02/03 04:49:23;;;;;;;84.63;79.07;;;7.40;94.60;;;;;;5014388;28;20247;-86
2023/02/03 04:51:49;;;;;;;84.17;78.10;;;7.40;94.60;;;;;;5016160;28;20197;-86
2023/02/03 04:54:15;;;;;;;83.73;77.90;;;7.40;94.70;;;;;;5016358;28;20679;-86
2023/02/03 04:56:40;;;;;;;82.83;76.70;;;7.40;94.80;;;;;;5016424;28;20205;-86
2023/02/03 04:59:06;;;;;;;88.20;82.07;;;7.40;94.80;;;;;;5017845;28;20174;-86
2023/02/03 05:01:32;;;;;;;86.53;80.70;;;7.40;94.90;;;;;;5017455;28;20212;-86
2023/02/03 05:03:58;;;;;;;90.00;84.07;;;7.30;94.90;;;;;;5016410;28;20177;-86
2023/02/03 05:06:25;;;;;;;91.47;85.03;;;7.30;95.00;;;;;;5016104;28;20176;-86
2023/02/03 05:08:51;;;;;;;93.23;86.47;;;7.30;95.00;;;;;;5016062;28;20182;-87
2023/02/03 05:11:17;;;;;;;84.17;77.77;;;7.30;95.00;;;;;;5016349;28;20204;-86
2023/02/03 05:13:42;;;;;;;92.80;85.43;;;7.40;95.10;;;;;;5016216;28;20185;-86
2023/02/03 05:16:08;;;;;;;89.13;82.37;;;7.30;95.10;;;;;;5017218;28;20173;-86
2023/02/03 05:18:33;;;;;;;87.30;81.40;;;7.30;95.20;;;;;;5015985;28;20169;-86
2023/02/03 05:20:59;;;;;;;104.63;97.70;;;7.30;95.20;;;;;;5015942;28;20194;-86
2023/02/03 05:23:24;;;;;;;91.00;85.13;;;7.30;95.30;;;;;;5015806;28;20542;-87
2023/02/03 05:25:50;;;;;;;95.77;88.93;;;7.40;95.30;;;;;;5017343;28;20170;-86
2023/02/03 05:28:15;;;;;;;94.97;88.40;;;7.30;95.20;;;;;;5016999;28;20255;-86
2023/02/03 05:30:41;;;;;;;93.80;87.00;;;7.30;95.30;;;;;;5016871;28;20544;-87
2023/02/03 05:33:06;;;;;;;91.33;84.37;;;7.30;95.20;;;;;;5016505;28;20177;-86
2023/02/03 05:35:32;;;;;;;85.30;79.73;;;7.40;95.10;;;;;;5015642;28;20581;-86
2023/02/03 05:37:58;;;;;;;88.47;82.50;;;7.40;95.00;;;;;;5015806;28;20173;-86
2023/02/03 05:43:08;;;;;;;87.10;81.40;;;7.50;94.90;;;;;;5017085;28;20244;-86
2023/02/03 05:45:34;;;;;;;88.90;82.37;;;7.50;94.90;;;;;;5017070;28;20256;-86
2023/02/03 05:48:01;;;;;;;91.07;85.37;;;7.50;94.90;;;;;;5015659;28;20220;-86
2023/02/03 05:50:33;;;;;;;95.43;89.23;;;7.50;94.90;;;;;;5015084;28;20247;-86
2023/02/03 05:53:03;;;;;;;96.67;89.87;;;7.50;94.90;;;;;;5015250;28;20170;-87
2023/02/03 05:55:30;;;;;;;99.03;92.53;;;7.50;94.90;;;;;;5016594;28;20192;-87
2023/02/03 05:57:56;;;;;;;95.37;88.70;;;7.50;94.90;;;;;;5015160;28;20264;-86
2023/02/03 06:00:22;;;;;;;96.30;89.50;;;7.50;95.00;;;;;;5015162;28;20196;-87
2023/02/03 06:02:52;;;;;;;98.63;92.00;;;7.60;94.90;;;;;;5015029;28;20181;-86
2023/02/03 06:05:19;;;;;;;95.37;89.03;;;7.50;94.90;;;;;;5016546;28;20252;-86
2023/02/03 06:07:44;;;;;;;95.80;89.50;;;7.50;94.90;;;;;;5015155;28;20196;-86
2023/02/03 06:10:10;;;;;;;96.53;90.50;;;7.50;95.10;;;;;;5014949;28;20181;-87
2023/02/03 06:12:37;;;;;;;99.97;92.50;;;7.50;95.20;;;;;;5014935;28;20180;-87
2023/02/03 06:15:02;;;;;;;102.67;95.63;;;7.50;95.20;;;;;;5016177;28;20201;-86
2023/02/03 06:17:28;;;;;;;106.37;98.20;;;7.50;95.20;;;;;;5015907;28;20544;-87
2023/02/03 06:19:54;;;;;;;107.60;100.07;;;7.60;95.20;;;;;;5014793;28;20180;-87
2023/02/03 06:22:19;;;;;;;107.13;99.77;;;7.50;95.30;;;;;;5014740;28;20190;-87
2023/02/03 06:24:46;;;;;;;105.43;98.13;;;7.60;95.30;;;;;;5016264;28;20192;-89
2023/02/03 06:27:13;;;;;;;109.60;102.63;;;7.60;95.30;;;;;;5015033;28;20188;-86
2023/02/03 06:29:38;;;;;;;111.47;103.40;;;7.60;95.30;;;;;;5016065;28;20260;-87
2023/02/03 06:32:04;;;;;;;100.60;93.60;;;7.70;95.30;;;;;;5015941;28;20224;-87
2023/02/03 06:34:31;;;;;;;85.83;80.03;;;7.70;95.00;;;;;;5014574;28;20250;-87
2023/02/03 06:36:57;;;;;;;75.93;70.10;;;7.90;94.70;;;;;;5014512;28;20185;-87
2023/02/03 06:39:22;;;;;;;76.50;69.80;;;8.10;94.10;;;;;;5015552;28;20181;-87
2023/02/03 06:41:50;;;;;;;76.60;70.10;;;8.00;93.90;;;;;;5015573;28;20205;-87
2023/02/03 06:44:15;;;;;;;76.80;71.30;;;8.00;93.90;;;;;;5014905;28;20636;-87
2023/02/03 06:46:41;;;;;;;80.07;73.73;;;8.10;93.80;;;;;;5015607;28;20185;-87
2023/02/03 06:49:06;;;;;;;83.90;76.83;;;8.10;93.80;;;;;;5015745;28;20181;-87
2023/02/03 06:51:32;;;;;;;84.77;77.70;;;8.10;93.90;;;;;;5014361;28;20204;-87
2023/02/03 06:53:58;;;;;;;78.43;73.00;;;8.10;93.90;;;;;;5014150;28;20713;-87
2023/02/03 06:56:23;;;;;;;82.40;75.47;;;8.10;93.90;;;;;;5015794;28;20170;-87
2023/02/03 06:58:49;;;;;;;81.77;75.40;;;8.10;93.80;;;;;;5015540;28;20256;-87
2023/02/03 07:01:14;;;;;;;88.97;82.03;;;8.20;93.90;;;;;;5015100;28;20243;-87
2023/02/03 07:03:40;;;;;;;93.93;86.57;;;8.10;94.00;;;;;;5014117;28;20188;-86
2023/02/03 07:06:06;;;;;;;97.60;90.23;;;8.10;94.20;;;;;;5014195;28;20182;-88
2023/02/03 07:08:31;;;;;;;108.13;98.50;;;8.00;94.20;;;;;;5015095;28;20256;-87
2023/02/03 07:10:57;;;;;;;100.23;92.80;;;8.00;94.30;;;;;;5015035;28;20273;-87
2023/02/03 07:13:23;;;;;;;105.43;98.57;;;8.00;94.50;;;;;;5014964;28;20725;-87
2023/02/03 07:15:49;;;;;;;114.17;105.63;;;8.00;94.50;;;;;;5015044;28;20280;-87
2023/02/03 07:18:16;;;;;;;116.30;108.17;;;8.00;94.60;;;;;;5013886;28;20177;-87
2023/02/03 07:20:42;;;;;;;113.70;105.93;;;8.00;94.60;;;;;;5014946;28;20293;-87
2023/02/03 07:23:07;;;;;;;112.37;104.27;;;8.00;94.70;;;;;;5013837;28;20658;-88
2023/02/03 07:25:33;;;;;;;116.17;107.87;;;8.00;94.70;;;;;;5013981;28;20272;-87
2023/02/03 07:27:58;;;;;;;108.47;100.17;;;8.00;94.70;;;;;;5015149;28;20210;-87
2023/02/03 07:30:24;;;;;;;114.60;106.23;;;8.00;94.60;;;;;;5014748;28;20197;-87
2023/02/03 07:32:51;;;;;;;116.57;108.67;;;8.00;94.70;;;;;;5013596;28;20597;-87
2023/02/03 07:35:17;;;;;;;119.60;111.30;;;8.00;94.70;;;;;;5013684;28;20212;-88
2023/02/03 07:37:43;;;;;;;116.77;109.17;;;8.00;94.70;;;;;;5014710;28;20243;-87
2023/02/03 07:40:10;;;;;;;114.10;104.83;;;8.00;94.70;;;;;;5013459;28;20715;-87
2023/02/03 07:42:40;;;;;;;112.57;103.83;;;8.00;94.60;;;;;;5014708;28;20174;-87
2023/02/03 07:45:06;;;;;;;110.13;100.80;;;8.10;94.60;;;;;;5013558;28;20188;-88
2023/02/03 07:47:32;;;;;;;99.57;92.10;;;8.10;94.50;;;;;;5013343;28;20188;-87
2023/02/03 07:49:57;;;;;;;106.33;98.10;;;8.10;94.40;;;;;;5013193;28;20177;-87
2023/02/03 07:52:23;;;;;;;104.33;97.47;;;8.10;94.50;;;;;;5014652;28;20185;-86
2023/02/03 07:54:48;;;;;;;105.23;97.40;;;8.10;94.50;;;;;;5014587;28;20571;-87
2023/02/03 07:57:14;;;;;;;111.43;101.77;;;8.10;94.40;;;;;;5013154;28;20173;-87
2023/02/03 07:59:39;;;;;;;118.33;107.20;;;8.10;94.40;;;;;;5014362;28;20228;-88
2023/02/03 08:02:05;;;;;;;119.37;109.23;;;8.10;94.50;;;;;;5014235;28;20209;-87
2023/02/03 08:04:30;;;;;;;123.30;113.47;;;8.10;94.60;;;;;;5012992;28;20181;-87
2023/02/03 08:06:56;;;;;;;115.03;106.93;;;8.00;94.60;;;;;;5012918;28;20240;-87
2023/02/03 08:09:21;;;;;;;103.07;93.30;;;8.10;94.70;;;;;;5014068;28;20193;-86
2023/02/03 08:11:47;;;;;;;65.70;59.57;;;7.90;94.20;;;;;;5012961;28;20212;-87
2023/02/03 08:14:13;;;;;;;55.20;49.33;;;7.80;93.00;;;;;;5013905;28;20197;-86
2023/02/03 08:16:38;;;;;;;56.13;43.23;;;7.80;92.40;;;;;;5012797;28;20169;-87
2023/02/03 08:19:04;;;;;;;50.77;45.67;;;7.90;91.70;;;;;;5012796;28;20170;-88
2023/02/03 08:21:30;;;;;;;56.27;40.27;;;7.90;91.90;;;;;;5014179;28;20569;-86
2023/02/03 08:23:56;;;;;;;61.07;36.57;;;7.80;91.50;;;;;;5012250;28;20181;-87
2023/02/03 08:26:21;;;;;;;49.50;24.47;;;7.80;91.10;;;;;;5014163;28;20170;-87
2023/02/03 08:28:48;;;;;;;48.67;21.97;;;7.80;88.90;;;;;;5014213;28;20185;-86
2023/02/03 08:31:14;;;;;;;38.83;21.80;;;7.80;88.10;;;;;;5014046;28;20675;-87
2023/02/03 08:33:40;;;;;;;32.77;19.53;;;7.70;87.40;;;;;;5014199;28;20256;-87
2023/02/03 08:36:06;;;;;;;37.13;18.07;;;7.80;86.20;;;;;;5014211;28;20232;-86
2023/02/03 08:38:31;;;;;;;34.37;17.83;;;7.80;85.00;;;;;;5013943;28;20601;-86
2023/02/03 08:40:57;;;;;;;37.67;18.47;;;7.90;84.40;;;;;;5012483;28;20189;-86
2023/02/03 08:43:22;;;;;;;28.70;17.70;;;8.00;83.70;;;;;;5013959;28;20181;-86
2023/02/03 08:45:48;;;;;;;32.93;17.67;;;7.80;83.90;;;;;;5012656;28;20177;-86
2023/02/03 08:48:13;;;;;;;35.40;18.23;;;7.90;83.20;;;;;;5012728;28;20525;-86
2023/02/03 08:50:44;;;;;;;36.50;18.83;;;7.90;83.90;;;;;;5012405;28;20694;-90
2023/02/03 08:53:09;;;;;;;39.53;18.50;;;7.80;84.20;;;;;;5012568;28;20181;-87
2023/02/03 08:55:39;;;;;;;45.93;18.87;;;7.70;84.80;;;;;;5012583;28;20197;-86
2023/02/03 08:58:04;;;;;;;39.53;19.13;;;7.80;83.70;;;;;;5012100;28;20173;-87
2023/02/03 09:00:30;;;;;;;55.00;19.07;;;7.90;83.20;;;;;;5013112;28;20195;-86
2023/02/03 09:02:55;;;;;;;45.77;18.77;;;7.80;83.70;;;;;;5013682;28;20170;-86
2023/02/03 09:05:21;;;;;;;43.20;20.73;;;7.80;84.10;;;;;;5013622;28;20668;-86
2023/02/03 09:07:46;;;;;;;47.43;19.00;;;7.80;83.80;;;;;;5012347;28;20188;-86
2023/02/03 09:10:12;;;;;;;51.80;19.70;;;7.80;84.00;;;;;;5012137;28;20185;-86
2023/02/03 09:12:38;;;;;;;49.17;18.40;;;7.80;84.10;;;;;;5012383;28;20181;-86
2023/02/03 09:15:03;;;;;;;58.53;21.43;;;7.90;83.50;;;;;;5012483;28;20235;-86
2023/02/03 09:17:29;;;;;;;43.50;19.53;;;7.80;83.90;;;;;;5012365;28;20184;-87
2023/02/03 09:19:54;;;;;;;28.00;17.93;;;7.80;84.30;;;;;;5013315;28;20185;-86
2023/02/03 09:22:20;;;;;;;46.47;18.63;;;7.80;84.30;;;;;;5013210;28;20193;-86
2023/02/03 09:24:47;;;;;;;51.40;19.87;;;7.90;84.20;;;;;;5011986;28;20647;-86
2023/02/03 09:27:12;;;;;;;62.53;22.03;;;7.80;84.80;;;;;;5013109;28;20258;-86
2023/02/03 09:29:38;;;;;;;55.77;21.83;;;7.80;84.90;;;;;;5013338;28;20644;-86
2023/02/03 09:32:07;;;;;;;61.07;21.03;;;7.70;84.60;;;;;;5011981;28;20201;-86
2023/02/03 09:34:33;;;;;;;63.87;20.20;;;7.70;84.30;;;;;;5013269;28;20193;-86
2023/02/03 09:36:58;;;;;;;61.57;21.07;;;7.70;84.60;;;;;;5015428;28;20200;-86
2023/02/03 09:39:24;;;;;;;67.20;18.40;;;7.70;84.90;;;;;;5015493;28;20227;-86
2023/02/03 09:42:13;;;;;;;54.00;21.03;;;7.70;84.60;;;;;;5016576;28;20268;-86
2023/02/03 09:45:00;;;;;;;67.67;21.80;;;7.70;85.10;;;;;;5015243;28;20165;-86
2023/02/03 09:47:34;;;;;;;55.47;20.37;;;7.60;85.50;;;;;;5015588;28;20170;-86
2023/02/03 09:50:02;;;;;;;48.33;21.00;;;7.70;86.10;;;;;;5016505;28;20189;-86
2023/02/03 09:52:36;;;;;;;63.37;22.53;;;7.70;86.90;;;;;;5016568;28;20170;-87
2023/02/03 09:55:22;;;;;;;59.73;24.43;;;7.70;87.20;;;;;;5016513;28;20185;-86
2023/02/03 09:58:04;;;;;;;73.37;23.27;;;7.70;87.20;;;;;;5015325;28;20649;-86
2023/02/03 10:00:50;;;;;;;57.13;21.37;;;7.80;87.10;;;;;;5015217;28;20745;-87
2023/02/03 10:03:37;;;;;;;64.83;22.37;;;7.80;85.90;;;;;;5015341;28;20619;-87
2023/02/03 10:06:11;;;;;;;65.30;21.50;;;7.80;86.10;;;;;;5014781;28;20605;-87
2023/02/03 10:09:04;;;;;;;59.67;22.03;;;7.80;85.40;;;;;;5014790;28;20169;-90
2023/02/03 10:11:38;;;;;;;51.03;21.63;;;7.80;85.10;;;;;;5014862;28;20211;-86
2023/02/03 10:14:06;;;;;;;64.90;20.53;;;7.80;85.10;;;;;;5016125;28;20204;-85
2023/02/03 10:16:46;;;;;;;58.83;19.50;;;7.80;84.60;;;;;;5016652;28;20170;-89
2023/02/03 10:19:18;;;;;;;50.83;20.10;;;7.70;84.20;;;;;;5016313;28;20149;-87
2023/02/03 10:21:51;;;;;;;53.80;21.73;;;7.80;83.90;;;;;;5015745;28;20189;-87
2023/02/03 10:24:23;;;;;;;66.60;21.07;;;7.80;82.80;;;;;;5014560;28;20307;-86
2023/02/03 10:26:49;;;;;;;64.67;21.43;;;7.80;82.60;;;;;;5016121;28;20163;-86
2023/02/03 10:29:33;;;;;;;67.63;21.63;;;7.70;83.00;;;;;;5014500;28;20235;-86
2023/02/03 10:31:59;;;;;;;56.90;20.07;;;7.70;83.30;;;;;;5014733;28;20208;-86
2023/02/03 10:34:25;;;;;;;67.53;21.27;;;7.70;83.00;;;;;;5014325;28;20205;-87
2023/02/03 10:37:01;;;;;;;64.50;21.63;;;7.70;83.60;;;;;;5014525;28;20196;-87
2023/02/03 10:39:32;;;;;;;68.13;21.03;;;7.80;83.30;;;;;;5014655;28;20178;-87
2023/02/03 10:41:58;;;;;;;55.77;18.53;;;7.80;83.50;;;;;;5014284;28;20205;-87
2023/02/03 10:44:47;;;;;;;68.57;20.13;;;7.90;83.40;;;;;;5014106;28;20651;-86
2023/02/03 10:47:40;;;;;;;60.33;20.37;;;7.90;83.30;;;;;;5013623;28;20184;-85
2023/02/03 10:50:23;;;;;;;60.63;20.60;;;8.00;82.50;;;;;;5013978;28;20180;-86
2023/02/03 10:52:49;;;;;;;51.60;20.87;;;8.00;83.00;;;;;;5014064;28;20553;-86
2023/02/03 10:55:23;;;;;;;43.57;18.10;;;8.00;82.30;;;;;;5013787;28;20197;-86
2023/02/03 10:57:49;;;;;;;54.03;22.43;;;8.00;82.40;;;;;;5014208;28;20196;-87
2023/02/03 11:00:23;;;;;;;47.60;19.27;;;8.00;82.20;;;;;;5015267;28;20224;-86
2023/02/03 11:03:01;;;;;;;52.10;20.03;;;8.00;82.10;;;;;;5014877;28;20183;-86
2023/02/03 11:05:27;;;;;;;40.13;18.73;;;8.00;82.50;;;;;;5013865;28;20173;-86
2023/02/03 11:07:53;;;;;;;60.53;20.93;;;8.10;82.10;;;;;;5014780;28;20243;-86
2023/02/03 11:10:33;;;;;;;51.70;18.43;;;8.20;81.50;;;;;;5015887;28;20199;-87
2023/02/03 11:13:20;;;;;;;71.73;22.20;;;8.10;81.50;;;;;;5015478;28;20176;-87
2023/02/03 11:16:04;;;;;;;69.57;20.63;;;8.20;81.60;;;;;;5015988;28;20221;-86
2023/02/03 11:18:32;;;;;;;57.97;20.27;;;8.20;81.40;;;;;;5014079;28;20170;-86
2023/02/03 11:20:58;;;;;;;43.50;19.27;;;8.20;80.80;;;;;;5013974;28;20194;-86
2023/02/03 11:23:24;;;;;;;43.13;18.80;;;8.30;80.70;;;;;;5013804;28;20597;-86
2023/02/03 11:25:50;;;;;;;57.47;20.83;;;8.40;80.80;;;;;;5013457;28;20709;-88
2023/02/03 11:28:16;;;;;;;51.90;19.27;;;8.40;80.40;;;;;;5013585;28;20181;-86
2023/02/03 11:30:42;;;;;;;52.13;20.17;;;8.40;80.80;;;;;;5013886;28;20291;-90
2023/02/03 11:33:18;;;;;;;49.57;19.57;;;8.50;80.50;;;;;;5015221;28;20272;-89
2023/02/03 11:35:58;;;;;;;45.47;20.03;;;8.50;80.60;;;;;;5014628;28;20200;-89
2023/02/03 11:38:35;;;;;;;50.60;19.07;;;8.50;80.50;;;;;;5015176;28;20251;-89
2023/02/03 11:41:02;;;;;;;41.83;19.23;;;8.60;80.60;;;;;;5016806;28;20197;-89
2023/02/03 11:43:28;;;;;;;58.50;20.57;;;8.70;80.10;;;;;;5015807;28;20197;-89
2023/02/03 11:46:00;;;;;;;50.07;18.37;;;8.60;80.60;;;;;;5015966;28;20659;-88
2023/02/03 11:48:31;;;;;;;56.53;20.27;;;8.50;80.20;;;;;;5015049;28;20558;-88
2023/02/03 11:51:12;;;;;;;48.83;19.17;;;8.50;80.20;;;;;;5015599;28;20200;-89
2023/02/03 11:54:16;;;;;;;45.40;21.90;;;8.70;79.70;;;;;;5014796;28;20174;-88
2023/02/03 11:57:16;;;;;;;52.77;19.97;;;8.60;79.00;;;;;;5014853;28;20176;-88
2023/02/03 12:00:01;;;;;;;52.13;20.50;;;8.70;79.70;;;;;;5013455;28;20187;-88
2023/02/03 12:02:41;;;;;;;56.20;20.80;;;8.80;79.50;;;;;;5014923;28;20196;-88
2023/02/03 12:05:32;;;;;;;46.87;19.63;;;8.90;79.90;;;;;;5015578;28;20180;-89
2023/02/03 12:08:12;;;;;;;57.40;19.73;;;9.00;78.60;;;;;;5017472;28;20209;-89
2023/02/03 12:11:09;;;;;;;69.80;22.30;;;8.90;79.10;;;;;;5015457;28;20204;-89
2023/02/03 12:14:02;;;;;;;61.50;20.90;;;8.70;79.20;;;;;;5015588;28;20182;-89
2023/02/03 12:16:50;;;;;;;45.37;17.93;;;8.50;79.80;;;;;;5014631;28;20268;-89
2023/02/03 12:19:42;;;;;;;49.53;18.77;;;8.40;80.00;;;;;;5015885;28;20291;-89
2023/02/03 12:22:18;;;;;;;44.73;19.03;;;8.40;80.00;;;;;;5007580;28;20201;-89
2023/02/03 12:25:17;;;;;;;42.70;17.37;;;8.30;80.30;;;;;;5016130;28;20251;-90
2023/02/03 12:28:10;;;;;;;46.40;17.57;;;8.20;79.80;;;;;;5011154;28;20193;-89
2023/02/03 12:30:43;;;;;;;47.90;17.97;;;8.20;80.40;;;;;;5018342;28;20215;-91
2023/02/03 12:33:25;;;;;;;41.87;17.70;;;8.20;80.40;;;;;;5019680;28;20170;-89
2023/02/03 12:36:18;;;;;;;50.73;18.40;;;8.10;80.40;;;;;;5014312;28;20193;-90
2023/02/03 12:39:13;;;;;;;51.97;18.07;;;8.10;80.70;;;;;;5015164;28;20231;-89
2023/02/03 12:41:45;;;;;;;57.27;18.80;;;8.10;81.00;;;;;;5016881;28;20208;-89
2023/02/03 12:44:25;;;;;;;56.00;17.30;;;8.00;80.80;;;;;;5026768;28;20154;-94
2023/02/03 12:47:15;;;;;;;57.80;17.37;;;8.00;81.20;;;;;;5027955;28;20169;-93
2023/02/03 12:49:46;;;;;;;61.33;18.43;;;7.90;81.10;;;;;;5031486;28;20170;-93
2023/02/03 12:52:39;;;;;;;54.13;19.80;;;7.90;81.00;;;;;;5029243;28;20189;-93
2023/02/03 12:55:42;;;;;;;50.33;17.07;;;7.90;80.90;;;;;;5029079;28;20223;-93